sensor_id;sensor_type;location;lat;lon;timestamp;P1;durP1;ratioP1;P2;durP2;ratioP2
6529;SDS011;3298;42.688;23.366;2022-09-09T00:01:54;7.40;;;5.30;;
6529;SDS011;3298;42.688;23.366;2022-09-09T00:04:27;7.27;;;5.40;;
6529;SDS011;3298;42.688;23.366;2022-09-09T00:06:59;6.30;;;5.80;;
6529;SDS011;3298;42.688;23.366;2022-09-09T00:09:31;5.50;;;5.00;;
6529;SDS011;3298;42.688;23.366;2022-09-09T00:12:08;9.47;;;5.50;;
6529;SDS011;3298;42.688;23.366;2022-09-09T00:14:39;6.37;;;5.77;;
6529;SDS011;3298;42.688;23.366;2022-09-09T00:17:16;7.27;;;5.60;;
6529;SDS011;3298;42.688;23.366;2022-09-09T00:19:53;7.73;;;6.23;;
6529;SDS011;3298;42.688;23.366;2022-09-09T00:22:29;6.60;;;6.10;;
6529;SDS011;3298;42.688;23.366;2022-09-09T00:24:58;9.43;;;7.30;;
6529;SDS011;3298;42.688;23.366;2022-09-09T00:27:37;6.80;;;6.20;;
6529;SDS011;3298;42.688;23.366;2022-09-09T00:30:14;7.50;;;6.03;;
6529;SDS011;3298;42.688;23.366;2022-09-09T00:32:45;9.13;;;6.07;;
6529;SDS011;3298;42.688;23.366;2022-09-09T00:35:15;10.70;;;7.00;;
6529;SDS011;3298;42.688;23.366;2022-09-09T00:37:46;6.53;;;6.13;;
6529;SDS011;3298;42.688;23.366;2022-09-09T00:40:18;7.80;;;7.10;;
6529;SDS011;3298;42.688;23.366;2022-09-09T00:42:52;8.03;;;7.33;;
6529;SDS011;3298;42.688;23.366;2022-09-09T00:45:35;6.47;;;5.97;;
6529;SDS011;3298;42.688;23.366;2022-09-09T00:48:15;9.77;;;7.23;;
6529;SDS011;3298;42.688;23.366;2022-09-09T00:50:44;6.77;;;6.27;;
6529;SDS011;3298;42.688;23.366;2022-09-09T00:53:22;7.20;;;6.50;;
6529;SDS011;3298;42.688;23.366;2022-09-09T00:55:58;6.73;;;6.23;;
6529;SDS011;3298;42.688;23.366;2022-09-09T00:58:33;5.57;;;4.97;;
6529;SDS011;3298;42.688;23.366;2022-09-09T01:01:01;6.03;;;5.50;;
6529;SDS011;3298;42.688;23.366;2022-09-09T01:03:35;4.93;;;4.63;;
6529;SDS011;3298;42.688;23.366;2022-09-09T01:06:14;4.73;;;4.53;;
6529;SDS011;3298;42.688;23.366;2022-09-09T01:08:58;5.70;;;5.37;;
6529;SDS011;3298;42.688;23.366;2022-09-09T01:11:33;6.47;;;5.67;;
6529;SDS011;3298;42.688;23.366;2022-09-09T01:14:10;6.03;;;5.63;;
6529;SDS011;3298;42.688;23.366;2022-09-09T01:16:43;8.90;;;5.40;;
6529;SDS011;3298;42.688;23.366;2022-09-09T01:19:13;5.23;;;4.93;;
6529;SDS011;3298;42.688;23.366;2022-09-09T01:21:48;5.80;;;5.40;;
6529;SDS011;3298;42.688;23.366;2022-09-09T01:24:24;5.87;;;5.47;;
6529;SDS011;3298;42.688;23.366;2022-09-09T01:26:59;5.27;;;4.97;;
6529;SDS011;3298;42.688;23.366;2022-09-09T01:29:28;5.40;;;4.90;;
6529;SDS011;3298;42.688;23.366;2022-09-09T01:31:57;5.77;;;5.13;;
6529;SDS011;3298;42.688;23.366;2022-09-09T01:34:25;4.90;;;4.60;;
6529;SDS011;3298;42.688;23.366;2022-09-09T01:36:57;5.70;;;5.20;;
6529;SDS011;3298;42.688;23.366;2022-09-09T01:39:27;6.07;;;5.57;;
6529;SDS011;3298;42.688;23.366;2022-09-09T01:41:54;5.00;;;4.70;;
6529;SDS011;3298;42.688;23.366;2022-09-09T01:44:23;5.73;;;5.10;;
6529;SDS011;3298;42.688;23.366;2022-09-09T01:46:52;5.73;;;5.33;;
6529;SDS011;3298;42.688;23.366;2022-09-09T01:49:18;7.60;;;5.10;;
6529;SDS011;3298;42.688;23.366;2022-09-09T01:51:46;5.37;;;4.97;;
6529;SDS011;3298;42.688;23.366;2022-09-09T01:54:17;6.23;;;5.47;;
6529;SDS011;3298;42.688;23.366;2022-09-09T01:56:47;5.53;;;5.20;;
6529;SDS011;3298;42.688;23.366;2022-09-09T01:59:27;5.40;;;5.00;;
6529;SDS011;3298;42.688;23.366;2022-09-09T02:02:08;5.13;;;4.83;;
6529;SDS011;3298;42.688;23.366;2022-09-09T02:04:38;5.57;;;5.17;;
6529;SDS011;3298;42.688;23.366;2022-09-09T02:07:10;5.73;;;5.30;;
6529;SDS011;3298;42.688;23.366;2022-09-09T02:09:49;7.53;;;5.70;;
6529;SDS011;3298;42.688;23.366;2022-09-09T02:12:23;6.37;;;5.80;;
6529;SDS011;3298;42.688;23.366;2022-09-09T02:14:55;6.67;;;6.10;;
6529;SDS011;3298;42.688;23.366;2022-09-09T02:17:26;5.40;;;5.10;;
6529;SDS011;3298;42.688;23.366;2022-09-09T02:19:58;6.23;;;5.73;;
6529;SDS011;3298;42.688;23.366;2022-09-09T02:22:30;6.13;;;5.63;;
6529;SDS011;3298;42.688;23.366;2022-09-09T02:25:00;7.10;;;6.27;;
6529;SDS011;3298;42.688;23.366;2022-09-09T02:27:30;6.23;;;5.57;;
6529;SDS011;3298;42.688;23.366;2022-09-09T02:29:59;6.13;;;5.57;;
6529;SDS011;3298;42.688;23.366;2022-09-09T02:32:28;6.40;;;5.73;;
6529;SDS011;3298;42.688;23.366;2022-09-09T02:34:57;9.37;;;6.03;;
6529;SDS011;3298;42.688;23.366;2022-09-09T02:37:31;5.40;;;4.90;;
6529;SDS011;3298;42.688;23.366;2022-09-09T02:40:02;6.13;;;5.53;;
6529;SDS011;3298;42.688;23.366;2022-09-09T02:42:29;6.77;;;6.13;;
6529;SDS011;3298;42.688;23.366;2022-09-09T02:44:56;6.60;;;5.87;;
6529;SDS011;3298;42.688;23.366;2022-09-09T02:47:26;6.93;;;6.33;;
6529;SDS011;3298;42.688;23.366;2022-09-09T02:50:02;6.80;;;6.30;;
6529;SDS011;3298;42.688;23.366;2022-09-09T02:52:37;9.77;;;5.63;;
6529;SDS011;3298;42.688;23.366;2022-09-09T02:55:11;6.87;;;6.17;;
6529;SDS011;3298;42.688;23.366;2022-09-09T02:57:44;5.83;;;5.43;;
6529;SDS011;3298;42.688;23.366;2022-09-09T03:00:15;6.77;;;5.70;;
6529;SDS011;3298;42.688;23.366;2022-09-09T03:02:42;5.30;;;4.90;;
6529;SDS011;3298;42.688;23.366;2022-09-09T03:05:10;7.20;;;5.63;;
6529;SDS011;3298;42.688;23.366;2022-09-09T03:07:38;5.83;;;5.17;;
6529;SDS011;3298;42.688;23.366;2022-09-09T03:10:05;6.97;;;6.57;;
6529;SDS011;3298;42.688;23.366;2022-09-09T03:12:33;10.57;;;5.90;;
6529;SDS011;3298;42.688;23.366;2022-09-09T03:14:59;10.03;;;6.10;;
6529;SDS011;3298;42.688;23.366;2022-09-09T03:17:28;7.37;;;6.77;;
6529;SDS011;3298;42.688;23.366;2022-09-09T03:19:55;6.87;;;6.23;;
6529;SDS011;3298;42.688;23.366;2022-09-09T03:22:22;6.73;;;6.20;;
6529;SDS011;3298;42.688;23.366;2022-09-09T03:24:50;7.57;;;6.90;;
6529;SDS011;3298;42.688;23.366;2022-09-09T03:27:17;8.20;;;7.40;;
6529;SDS011;3298;42.688;23.366;2022-09-09T03:29:44;7.47;;;6.90;;
6529;SDS011;3298;42.688;23.366;2022-09-09T03:32:11;8.27;;;6.67;;
6529;SDS011;3298;42.688;23.366;2022-09-09T03:34:39;7.33;;;6.73;;
6529;SDS011;3298;42.688;23.366;2022-09-09T03:37:06;8.17;;;7.37;;
6529;SDS011;3298;42.688;23.366;2022-09-09T03:39:33;12.13;;;7.03;;
6529;SDS011;3298;42.688;23.366;2022-09-09T03:41:59;7.67;;;7.07;;
6529;SDS011;3298;42.688;23.366;2022-09-09T03:44:29;7.93;;;6.50;;
6529;SDS011;3298;42.688;23.366;2022-09-09T03:46:56;10.07;;;7.10;;
6529;SDS011;3298;42.688;23.366;2022-09-09T03:49:25;11.47;;;8.10;;
6529;SDS011;3298;42.688;23.366;2022-09-09T03:51:55;7.10;;;6.47;;
6529;SDS011;3298;42.688;23.366;2022-09-09T03:54:23;8.17;;;7.63;;
6529;SDS011;3298;42.688;23.366;2022-09-09T03:56:50;9.80;;;7.23;;
6529;SDS011;3298;42.688;23.366;2022-09-09T03:59:17;7.53;;;6.93;;
6529;SDS011;3298;42.688;23.366;2022-09-09T04:01:44;8.30;;;7.63;;
6529;SDS011;3298;42.688;23.366;2022-09-09T04:04:12;9.67;;;8.67;;
6529;SDS011;3298;42.688;23.366;2022-09-09T04:06:38;8.30;;;7.60;;
6529;SDS011;3298;42.688;23.366;2022-09-09T04:09:07;8.20;;;7.43;;
6529;SDS011;3298;42.688;23.366;2022-09-09T04:11:33;8.57;;;7.77;;
6529;SDS011;3298;42.688;23.366;2022-09-09T04:14:00;8.87;;;7.93;;
6529;SDS011;3298;42.688;23.366;2022-09-09T04:16:27;11.53;;;8.13;;
6529;SDS011;3298;42.688;23.366;2022-09-09T04:18:54;10.00;;;9.00;;
6529;SDS011;3298;42.688;23.366;2022-09-09T04:21:22;13.10;;;7.83;;
6529;SDS011;3298;42.688;23.366;2022-09-09T04:23:49;9.53;;;8.63;;
6529;SDS011;3298;42.688;23.366;2022-09-09T04:26:17;11.57;;;8.37;;
6529;SDS011;3298;42.688;23.366;2022-09-09T04:28:45;8.50;;;7.83;;
6529;SDS011;3298;42.688;23.366;2022-09-09T04:31:14;9.13;;;8.37;;
6529;SDS011;3298;42.688;23.366;2022-09-09T04:33:42;9.23;;;7.70;;
6529;SDS011;3298;42.688;23.366;2022-09-09T04:36:09;13.20;;;6.97;;
6529;SDS011;3298;42.688;23.366;2022-09-09T04:38:37;9.77;;;7.83;;
6529;SDS011;3298;42.688;23.366;2022-09-09T04:41:04;9.87;;;7.33;;
6529;SDS011;3298;42.688;23.366;2022-09-09T04:43:32;7.53;;;7.00;;
6529;SDS011;3298;42.688;23.366;2022-09-09T04:45:59;8.10;;;7.07;;
6529;SDS011;3298;42.688;23.366;2022-09-09T04:48:26;7.90;;;7.10;;
6529;SDS011;3298;42.688;23.366;2022-09-09T04:50:53;7.90;;;7.20;;
6529;SDS011;3298;42.688;23.366;2022-09-09T04:53:21;12.17;;;7.37;;
6529;SDS011;3298;42.688;23.366;2022-09-09T04:55:48;9.40;;;8.60;;
6529;SDS011;3298;42.688;23.366;2022-09-09T04:58:15;13.27;;;7.37;;
6529;SDS011;3298;42.688;23.366;2022-09-09T05:00:43;8.27;;;7.63;;
6529;SDS011;3298;42.688;23.366;2022-09-09T05:03:11;8.33;;;7.53;;
6529;SDS011;3298;42.688;23.366;2022-09-09T05:05:38;11.17;;;7.90;;
6529;SDS011;3298;42.688;23.366;2022-09-09T05:08:05;6.80;;;6.40;;
6529;SDS011;3298;42.688;23.366;2022-09-09T05:10:34;9.77;;;8.43;;
6529;SDS011;3298;42.688;23.366;2022-09-09T05:13:04;8.13;;;7.03;;
6529;SDS011;3298;42.688;23.366;2022-09-09T05:15:31;8.77;;;7.87;;
6529;SDS011;3298;42.688;23.366;2022-09-09T05:17:59;9.37;;;7.87;;
6529;SDS011;3298;42.688;23.366;2022-09-09T05:20:28;8.90;;;7.97;;
6529;SDS011;3298;42.688;23.366;2022-09-09T05:22:55;7.63;;;6.90;;
6529;SDS011;3298;42.688;23.366;2022-09-09T05:25:22;7.17;;;6.53;;
6529;SDS011;3298;42.688;23.366;2022-09-09T05:27:50;9.53;;;6.90;;
6529;SDS011;3298;42.688;23.366;2022-09-09T05:30:18;8.13;;;7.33;;
6529;SDS011;3298;42.688;23.366;2022-09-09T05:32:45;8.20;;;6.83;;
6529;SDS011;3298;42.688;23.366;2022-09-09T05:35:14;8.10;;;6.83;;
6529;SDS011;3298;42.688;23.366;2022-09-09T05:37:41;7.67;;;6.97;;
6529;SDS011;3298;42.688;23.366;2022-09-09T05:40:08;9.03;;;6.43;;
6529;SDS011;3298;42.688;23.366;2022-09-09T05:42:36;7.50;;;6.87;;
6529;SDS011;3298;42.688;23.366;2022-09-09T05:45:04;14.50;;;7.90;;
6529;SDS011;3298;42.688;23.366;2022-09-09T05:47:32;8.03;;;6.23;;
6529;SDS011;3298;42.688;23.366;2022-09-09T05:49:59;8.00;;;5.50;;
6529;SDS011;3298;42.688;23.366;2022-09-09T05:52:27;5.07;;;4.57;;
6529;SDS011;3298;42.688;23.366;2022-09-09T05:54:54;4.63;;;4.23;;
6529;SDS011;3298;42.688;23.366;2022-09-09T05:57:22;4.87;;;4.50;;
6529;SDS011;3298;42.688;23.366;2022-09-09T05:59:49;13.63;;;9.23;;
6529;SDS011;3298;42.688;23.366;2022-09-09T06:02:16;8.80;;;5.77;;
6529;SDS011;3298;42.688;23.366;2022-09-09T06:04:42;7.73;;;7.07;;
6529;SDS011;3298;42.688;23.366;2022-09-09T06:07:09;7.50;;;5.10;;
6529;SDS011;3298;42.688;23.366;2022-09-09T06:09:37;4.67;;;4.27;;
6529;SDS011;3298;42.688;23.366;2022-09-09T06:12:04;4.93;;;4.53;;
6529;SDS011;3298;42.688;23.366;2022-09-09T06:14:31;4.83;;;4.43;;
6529;SDS011;3298;42.688;23.366;2022-09-09T06:16:58;4.63;;;4.23;;
6529;SDS011;3298;42.688;23.366;2022-09-09T06:19:25;6.50;;;3.90;;
6529;SDS011;3298;42.688;23.366;2022-09-09T06:21:52;5.00;;;3.80;;
6529;SDS011;3298;42.688;23.366;2022-09-09T06:24:18;8.97;;;4.27;;
6529;SDS011;3298;42.688;23.366;2022-09-09T06:26:46;3.77;;;3.30;;
6529;SDS011;3298;42.688;23.366;2022-09-09T06:29:13;3.97;;;3.23;;
6529;SDS011;3298;42.688;23.366;2022-09-09T06:31:40;5.77;;;3.60;;
6529;SDS011;3298;42.688;23.366;2022-09-09T06:34:07;3.73;;;3.53;;
6529;SDS011;3298;42.688;23.366;2022-09-09T06:36:35;4.87;;;3.47;;
6529;SDS011;3298;42.688;23.366;2022-09-09T06:39:03;6.47;;;3.27;;
6529;SDS011;3298;42.688;23.366;2022-09-09T06:41:31;3.07;;;2.97;;
6529;SDS011;3298;42.688;23.366;2022-09-09T06:44:00;3.40;;;3.20;;
6529;SDS011;3298;42.688;23.366;2022-09-09T06:46:28;3.43;;;3.23;;
6529;SDS011;3298;42.688;23.366;2022-09-09T06:48:57;5.23;;;3.50;;
6529;SDS011;3298;42.688;23.366;2022-09-09T06:51:26;8.27;;;2.93;;
6529;SDS011;3298;42.688;23.366;2022-09-09T06:53:54;2.93;;;2.73;;
6529;SDS011;3298;42.688;23.366;2022-09-09T06:56:23;7.57;;;3.50;;
6529;SDS011;3298;42.688;23.366;2022-09-09T06:58:52;7.73;;;3.33;;
6529;SDS011;3298;42.688;23.366;2022-09-09T07:01:21;4.17;;;3.80;;
6529;SDS011;3298;42.688;23.366;2022-09-09T07:03:50;6.43;;;3.23;;
6529;SDS011;3298;42.688;23.366;2022-09-09T07:06:18;3.63;;;3.40;;
6529;SDS011;3298;42.688;23.366;2022-09-09T07:08:49;3.10;;;2.87;;
6529;SDS011;3298;42.688;23.366;2022-09-09T07:11:18;4.50;;;2.63;;
6529;SDS011;3298;42.688;23.366;2022-09-09T07:13:46;2.63;;;2.43;;
6529;SDS011;3298;42.688;23.366;2022-09-09T07:16:13;4.37;;;3.10;;
6529;SDS011;3298;42.688;23.366;2022-09-09T07:18:43;4.10;;;3.30;;
6529;SDS011;3298;42.688;23.366;2022-09-09T07:21:11;5.97;;;2.83;;
6529;SDS011;3298;42.688;23.366;2022-09-09T07:23:38;6.70;;;3.37;;
6529;SDS011;3298;42.688;23.366;2022-09-09T07:26:09;7.53;;;2.93;;
6529;SDS011;3298;42.688;23.366;2022-09-09T07:28:37;3.43;;;3.13;;
6529;SDS011;3298;42.688;23.366;2022-09-09T07:31:05;3.60;;;3.13;;
6529;SDS011;3298;42.688;23.366;2022-09-09T07:33:33;3.03;;;2.83;;
6529;SDS011;3298;42.688;23.366;2022-09-09T07:36:06;5.43;;;2.80;;
6529;SDS011;3298;42.688;23.366;2022-09-09T07:38:37;4.70;;;2.73;;
6529;SDS011;3298;42.688;23.366;2022-09-09T07:41:06;3.30;;;2.93;;
6529;SDS011;3298;42.688;23.366;2022-09-09T07:43:37;6.53;;;4.50;;
6529;SDS011;3298;42.688;23.366;2022-09-09T07:46:04;4.93;;;3.17;;
6529;SDS011;3298;42.688;23.366;2022-09-09T07:48:32;2.80;;;2.70;;
6529;SDS011;3298;42.688;23.366;2022-09-09T07:51:03;4.10;;;2.60;;
6529;SDS011;3298;42.688;23.366;2022-09-09T07:53:33;2.73;;;2.63;;
6529;SDS011;3298;42.688;23.366;2022-09-09T07:56:05;3.47;;;3.07;;
6529;SDS011;3298;42.688;23.366;2022-09-09T07:58:34;4.43;;;3.27;;
6529;SDS011;3298;42.688;23.366;2022-09-09T08:01:05;8.60;;;3.23;;
6529;SDS011;3298;42.688;23.366;2022-09-09T08:03:34;5.43;;;3.17;;
6529;SDS011;3298;42.688;23.366;2022-09-09T08:06:01;4.07;;;2.97;;
6529;SDS011;3298;42.688;23.366;2022-09-09T08:08:30;4.67;;;2.80;;
6529;SDS011;3298;42.688;23.366;2022-09-09T08:11:06;9.53;;;4.50;;
6529;SDS011;3298;42.688;23.366;2022-09-09T08:13:35;2.80;;;2.53;;
6529;SDS011;3298;42.688;23.366;2022-09-09T08:16:06;6.00;;;2.87;;
6529;SDS011;3298;42.688;23.366;2022-09-09T08:18:34;3.43;;;2.83;;
6529;SDS011;3298;42.688;23.366;2022-09-09T08:21:05;62.53;;;8.40;;
6529;SDS011;3298;42.688;23.366;2022-09-09T08:23:35;5.37;;;3.10;;
6529;SDS011;3298;42.688;23.366;2022-09-09T08:26:05;3.00;;;2.80;;
6529;SDS011;3298;42.688;23.366;2022-09-09T08:28:35;5.33;;;2.80;;
6529;SDS011;3298;42.688;23.366;2022-09-09T08:31:09;4.33;;;4.03;;
6529;SDS011;3298;42.688;23.366;2022-09-09T08:33:38;2.93;;;2.73;;
6529;SDS011;3298;42.688;23.366;2022-09-09T08:36:06;5.90;;;3.30;;
6529;SDS011;3298;42.688;23.366;2022-09-09T08:38:37;5.17;;;3.10;;
6529;SDS011;3298;42.688;23.366;2022-09-09T08:41:13;5.97;;;3.73;;
6529;SDS011;3298;42.688;23.366;2022-09-09T08:43:58;4.23;;;3.30;;
6529;SDS011;3298;42.688;23.366;2022-09-09T08:46:32;4.10;;;3.70;;
6529;SDS011;3298;42.688;23.366;2022-09-09T08:49:13;6.63;;;4.10;;
6529;SDS011;3298;42.688;23.366;2022-09-09T08:51:51;4.03;;;3.30;;
6529;SDS011;3298;42.688;23.366;2022-09-09T08:54:22;3.63;;;3.33;;
6529;SDS011;3298;42.688;23.366;2022-09-09T08:56:50;3.63;;;3.43;;
6529;SDS011;3298;42.688;23.366;2022-09-09T08:59:17;3.50;;;3.30;;
6529;SDS011;3298;42.688;23.366;2022-09-09T09:01:50;4.17;;;3.80;;
6529;SDS011;3298;42.688;23.366;2022-09-09T09:04:38;3.80;;;3.50;;
6529;SDS011;3298;42.688;23.366;2022-09-09T09:07:16;4.03;;;3.57;;
6529;SDS011;3298;42.688;23.366;2022-09-09T09:09:55;4.27;;;3.20;;
6529;SDS011;3298;42.688;23.366;2022-09-09T09:12:32;11.67;;;3.10;;
6529;SDS011;3298;42.688;23.366;2022-09-09T09:15:05;4.10;;;3.63;;
6529;SDS011;3298;42.688;23.366;2022-09-09T09:17:41;4.10;;;3.30;;
6529;SDS011;3298;42.688;23.366;2022-09-09T09:20:11;3.70;;;3.50;;
6529;SDS011;3298;42.688;23.366;2022-09-09T09:22:43;3.80;;;3.20;;
6529;SDS011;3298;42.688;23.366;2022-09-09T09:25:16;5.07;;;3.50;;
6529;SDS011;3298;42.688;23.366;2022-09-09T09:27:47;3.60;;;2.90;;
6529;SDS011;3298;42.688;23.366;2022-09-09T09:30:19;6.17;;;3.63;;
6529;SDS011;3298;42.688;23.366;2022-09-09T09:32:49;3.77;;;3.40;;
6529;SDS011;3298;42.688;23.366;2022-09-09T09:35:19;3.13;;;2.93;;
6529;SDS011;3298;42.688;23.366;2022-09-09T09:37:46;9.77;;;3.33;;
6529;SDS011;3298;42.688;23.366;2022-09-09T09:40:16;3.57;;;3.30;;
6529;SDS011;3298;42.688;23.366;2022-09-09T09:42:48;3.17;;;2.97;;
6529;SDS011;3298;42.688;23.366;2022-09-09T09:45:20;3.40;;;3.20;;
6529;SDS011;3298;42.688;23.366;2022-09-09T09:47:57;3.63;;;3.40;;
6529;SDS011;3298;42.688;23.366;2022-09-09T09:50:25;3.73;;;3.20;;
6529;SDS011;3298;42.688;23.366;2022-09-09T09:52:55;3.20;;;3.00;;
6529;SDS011;3298;42.688;23.366;2022-09-09T09:55:24;6.60;;;3.00;;
6529;SDS011;3298;42.688;23.366;2022-09-09T09:57:52;3.93;;;2.93;;
6529;SDS011;3298;42.688;23.366;2022-09-09T10:00:20;4.57;;;3.73;;
6529;SDS011;3298;42.688;23.366;2022-09-09T10:02:49;4.40;;;3.23;;
6529;SDS011;3298;42.688;23.366;2022-09-09T10:05:18;3.37;;;3.07;;
6529;SDS011;3298;42.688;23.366;2022-09-09T10:07:46;4.00;;;3.70;;
6529;SDS011;3298;42.688;23.366;2022-09-09T10:10:30;3.33;;;3.03;;
6529;SDS011;3298;42.688;23.366;2022-09-09T10:13:09;4.37;;;3.23;;
6529;SDS011;3298;42.688;23.366;2022-09-09T10:15:44;3.53;;;2.97;;
6529;SDS011;3298;42.688;23.366;2022-09-09T10:18:23;3.37;;;3.03;;
6529;SDS011;3298;42.688;23.366;2022-09-09T10:21:02;3.73;;;3.03;;
6529;SDS011;3298;42.688;23.366;2022-09-09T10:23:39;3.70;;;3.40;;
6529;SDS011;3298;42.688;23.366;2022-09-09T10:26:27;4.17;;;3.40;;
6529;SDS011;3298;42.688;23.366;2022-09-09T10:29:05;3.57;;;3.30;;
6529;SDS011;3298;42.688;23.366;2022-09-09T10:31:49;3.80;;;3.50;;
6529;SDS011;3298;42.688;23.366;2022-09-09T10:34:25;6.77;;;3.40;;
6529;SDS011;3298;42.688;23.366;2022-09-09T10:37:11;3.27;;;3.07;;
6529;SDS011;3298;42.688;23.366;2022-09-09T10:39:53;5.33;;;3.97;;
6529;SDS011;3298;42.688;23.366;2022-09-09T10:42:29;9.00;;;3.93;;
6529;SDS011;3298;42.688;23.366;2022-09-09T10:45:02;5.07;;;3.70;;
6529;SDS011;3298;42.688;23.366;2022-09-09T10:47:49;3.33;;;3.20;;
6529;SDS011;3298;42.688;23.366;2022-09-09T10:50:40;4.90;;;4.20;;
6529;SDS011;3298;42.688;23.366;2022-09-09T10:53:18;4.10;;;3.80;;
6529;SDS011;3298;42.688;23.366;2022-09-09T10:55:53;7.97;;;3.97;;
6529;SDS011;3298;42.688;23.366;2022-09-09T10:58:27;3.23;;;3.03;;
6529;SDS011;3298;42.688;23.366;2022-09-09T11:01:00;6.00;;;3.53;;
6529;SDS011;3298;42.688;23.366;2022-09-09T11:03:32;4.20;;;3.90;;
6529;SDS011;3298;42.688;23.366;2022-09-09T11:06:04;4.57;;;3.63;;
6529;SDS011;3298;42.688;23.366;2022-09-09T11:08:32;11.30;;;4.77;;
6529;SDS011;3298;42.688;23.366;2022-09-09T11:11:02;7.33;;;4.37;;
6529;SDS011;3298;42.688;23.366;2022-09-09T11:13:32;5.93;;;3.90;;
6529;SDS011;3298;42.688;23.366;2022-09-09T11:16:05;5.07;;;4.20;;
6529;SDS011;3298;42.688;23.366;2022-09-09T11:18:45;4.47;;;4.10;;
6529;SDS011;3298;42.688;23.366;2022-09-09T11:21:14;10.43;;;4.40;;
6529;SDS011;3298;42.688;23.366;2022-09-09T11:23:48;9.53;;;5.13;;
6529;SDS011;3298;42.688;23.366;2022-09-09T11:26:23;5.00;;;4.50;;
6529;SDS011;3298;42.688;23.366;2022-09-09T11:31:55;9.83;;;4.97;;
6529;SDS011;3298;42.688;23.366;2022-09-09T11:34:35;4.93;;;4.43;;
6529;SDS011;3298;42.688;23.366;2022-09-09T11:37:14;6.33;;;5.00;;
6529;SDS011;3298;42.688;23.366;2022-09-09T11:40:07;5.90;;;4.83;;
6529;SDS011;3298;42.688;23.366;2022-09-09T11:42:42;9.43;;;4.73;;
6529;SDS011;3298;42.688;23.366;2022-09-09T11:45:15;8.87;;;3.80;;
6529;SDS011;3298;42.688;23.366;2022-09-09T11:47:52;5.83;;;4.73;;
6529;SDS011;3298;42.688;23.366;2022-09-09T11:53:21;6.83;;;4.53;;
6529;SDS011;3298;42.688;23.366;2022-09-09T11:58:41;4.63;;;4.13;;
6529;SDS011;3298;42.688;23.366;2022-09-09T12:01:26;6.93;;;4.87;;
6529;SDS011;3298;42.688;23.366;2022-09-09T12:04:01;7.83;;;4.70;;
6529;SDS011;3298;42.688;23.366;2022-09-09T12:06:43;5.87;;;4.77;;
6529;SDS011;3298;42.688;23.366;2022-09-09T12:09:22;7.00;;;4.50;;
6529;SDS011;3298;42.688;23.366;2022-09-09T12:12:04;8.80;;;4.57;;
6529;SDS011;3298;42.688;23.366;2022-09-09T12:14:36;9.53;;;5.53;;
6529;SDS011;3298;42.688;23.366;2022-09-09T12:17:19;5.30;;;4.77;;
6529;SDS011;3298;42.688;23.366;2022-09-09T12:19:48;6.57;;;5.10;;
6529;SDS011;3298;42.688;23.366;2022-09-09T12:22:32;6.87;;;5.80;;
6529;SDS011;3298;42.688;23.366;2022-09-09T12:25:08;5.80;;;5.33;;
6529;SDS011;3298;42.688;23.366;2022-09-09T12:27:48;5.20;;;4.77;;
6529;SDS011;3298;42.688;23.366;2022-09-09T12:30:27;6.33;;;4.77;;
6529;SDS011;3298;42.688;23.366;2022-09-09T12:33:06;8.17;;;4.67;;
6529;SDS011;3298;42.688;23.366;2022-09-09T12:35:37;13.33;;;4.80;;
6529;SDS011;3298;42.688;23.366;2022-09-09T12:38:06;5.50;;;4.97;;
6529;SDS011;3298;42.688;23.366;2022-09-09T12:40:40;5.33;;;4.83;;
6529;SDS011;3298;42.688;23.366;2022-09-09T12:43:17;6.47;;;4.63;;
6529;SDS011;3298;42.688;23.366;2022-09-09T12:45:46;8.70;;;4.87;;
6529;SDS011;3298;42.688;23.366;2022-09-09T12:48:16;12.17;;;4.40;;
6529;SDS011;3298;42.688;23.366;2022-09-09T12:50:47;6.07;;;4.83;;
6529;SDS011;3298;42.688;23.366;2022-09-09T12:53:17;7.70;;;4.97;;
6529;SDS011;3298;42.688;23.366;2022-09-09T12:55:49;6.20;;;4.90;;
6529;SDS011;3298;42.688;23.366;2022-09-09T12:58:18;9.47;;;4.80;;
6529;SDS011;3298;42.688;23.366;2022-09-09T13:00:48;10.80;;;5.13;;
6529;SDS011;3298;42.688;23.366;2022-09-09T13:03:19;6.23;;;4.80;;
6529;SDS011;3298;42.688;23.366;2022-09-09T13:05:47;10.10;;;6.00;;
6529;SDS011;3298;42.688;23.366;2022-09-09T13:08:14;7.57;;;4.57;;
6529;SDS011;3298;42.688;23.366;2022-09-09T13:10:46;5.70;;;4.50;;
6529;SDS011;3298;42.688;23.366;2022-09-09T13:13:20;5.00;;;4.60;;
6529;SDS011;3298;42.688;23.366;2022-09-09T13:15:49;5.17;;;4.67;;
6529;SDS011;3298;42.688;23.366;2022-09-09T13:18:21;8.63;;;4.97;;
6529;SDS011;3298;42.688;23.366;2022-09-09T13:20:51;6.00;;;5.37;;
6529;SDS011;3298;42.688;23.366;2022-09-09T13:23:18;4.63;;;4.40;;
6529;SDS011;3298;42.688;23.366;2022-09-09T13:25:53;5.83;;;4.33;;
6529;SDS011;3298;42.688;23.366;2022-09-09T13:28:23;9.03;;;4.50;;
6529;SDS011;3298;42.688;23.366;2022-09-09T13:30:55;5.43;;;4.43;;
6529;SDS011;3298;42.688;23.366;2022-09-09T13:33:30;6.70;;;4.73;;
6529;SDS011;3298;42.688;23.366;2022-09-09T13:36:00;5.53;;;4.97;;
6529;SDS011;3298;42.688;23.366;2022-09-09T13:38:30;4.90;;;4.60;;
6529;SDS011;3298;42.688;23.366;2022-09-09T13:41:00;6.83;;;5.87;;
6529;SDS011;3298;42.688;23.366;2022-09-09T13:43:30;6.97;;;4.43;;
6529;SDS011;3298;42.688;23.366;2022-09-09T13:45:58;9.87;;;4.60;;
6529;SDS011;3298;42.688;23.366;2022-09-09T13:48:27;10.67;;;4.47;;
6529;SDS011;3298;42.688;23.366;2022-09-09T13:51:01;5.20;;;4.80;;
6529;SDS011;3298;42.688;23.366;2022-09-09T13:53:30;9.30;;;5.00;;
6529;SDS011;3298;42.688;23.366;2022-09-09T13:55:57;10.17;;;5.17;;
6529;SDS011;3298;42.688;23.366;2022-09-09T13:58:26;13.30;;;5.40;;
6529;SDS011;3298;42.688;23.366;2022-09-09T14:00:53;5.50;;;5.00;;
6529;SDS011;3298;42.688;23.366;2022-09-09T14:03:20;6.60;;;5.77;;
6529;SDS011;3298;42.688;23.366;2022-09-09T14:05:47;6.40;;;5.37;;
6529;SDS011;3298;42.688;23.366;2022-09-09T14:08:20;13.03;;;5.43;;
6529;SDS011;3298;42.688;23.366;2022-09-09T14:10:48;7.20;;;5.00;;
6529;SDS011;3298;42.688;23.366;2022-09-09T14:13:15;5.63;;;4.23;;
6529;SDS011;3298;42.688;23.366;2022-09-09T14:15:42;5.10;;;4.50;;
6529;SDS011;3298;42.688;23.366;2022-09-09T14:18:09;20.37;;;5.00;;
6529;SDS011;3298;42.688;23.366;2022-09-09T14:20:39;5.80;;;4.57;;
6529;SDS011;3298;42.688;23.366;2022-09-09T14:23:07;5.47;;;4.57;;
6529;SDS011;3298;42.688;23.366;2022-09-09T14:25:40;11.47;;;4.93;;
6529;SDS011;3298;42.688;23.366;2022-09-09T14:28:08;6.77;;;4.60;;
6529;SDS011;3298;42.688;23.366;2022-09-09T14:30:37;5.60;;;4.17;;
6529;SDS011;3298;42.688;23.366;2022-09-09T14:33:05;6.03;;;5.60;;
6529;SDS011;3298;42.688;23.366;2022-09-09T14:35:32;13.83;;;5.53;;
6529;SDS011;3298;42.688;23.366;2022-09-09T14:37:59;5.67;;;3.97;;
6529;SDS011;3298;42.688;23.366;2022-09-09T14:40:27;4.57;;;3.93;;
6529;SDS011;3298;42.688;23.366;2022-09-09T14:42:55;4.83;;;4.07;;
6529;SDS011;3298;42.688;23.366;2022-09-09T14:45:23;13.67;;;6.20;;
6529;SDS011;3298;42.688;23.366;2022-09-09T14:47:51;6.93;;;4.73;;
6529;SDS011;3298;42.688;23.366;2022-09-09T14:50:18;4.67;;;4.27;;
6529;SDS011;3298;42.688;23.366;2022-09-09T14:52:45;6.33;;;5.03;;
6529;SDS011;3298;42.688;23.366;2022-09-09T14:55:12;4.83;;;4.40;;
6529;SDS011;3298;42.688;23.366;2022-09-09T14:57:40;8.13;;;5.10;;
6529;SDS011;3298;42.688;23.366;2022-09-09T15:00:09;5.07;;;4.13;;
6529;SDS011;3298;42.688;23.366;2022-09-09T15:02:37;7.47;;;4.23;;
6529;SDS011;3298;42.688;23.366;2022-09-09T15:05:04;5.53;;;4.97;;
6529;SDS011;3298;42.688;23.366;2022-09-09T15:07:32;6.57;;;4.13;;
6529;SDS011;3298;42.688;23.366;2022-09-09T15:09:59;4.87;;;4.47;;
6529;SDS011;3298;42.688;23.366;2022-09-09T15:12:25;8.30;;;4.40;;
6529;SDS011;3298;42.688;23.366;2022-09-09T15:14:53;5.20;;;4.60;;
6529;SDS011;3298;42.688;23.366;2022-09-09T15:17:22;7.10;;;4.87;;
6529;SDS011;3298;42.688;23.366;2022-09-09T15:19:52;7.40;;;5.70;;
6529;SDS011;3298;42.688;23.366;2022-09-09T15:22:20;7.83;;;4.70;;
6529;SDS011;3298;42.688;23.366;2022-09-09T15:24:47;4.67;;;4.23;;
6529;SDS011;3298;42.688;23.366;2022-09-09T15:27:13;5.33;;;4.83;;
6529;SDS011;3298;42.688;23.366;2022-09-09T15:29:40;9.87;;;4.07;;
6529;SDS011;3298;42.688;23.366;2022-09-09T15:32:09;6.83;;;3.97;;